Airfield :
LOGIN :

Register | Disclaimer

   EN    FR    IT 

 










Legend :    VFR   Marginal VFR   IFR   Intensive IFR   Very Intensive IFR
Visi :
Ceiling :
>= 8 km
>= 3000ft
5 to 8 km
1000 to 3000 ft
1500m to 5 km
500 to 1000 ft
800 to 1500m
200 to 500 ft
< 800m
< 200 ft
Symbols :   Thunderstorms  Fog  Heavy snow  Heavy precipitations  Wind > 20 kt
SIGMETs :     Misc.  Thunderstorms  Icing  Turbulence  Mountain Waves  Volcanic Ashes







- Airport Elevation : 302 ft
- IATA code : CGN


EDDK - Cologne Bonn

CURRENT METAR :
  • 121320Z 27012KT 9999 SCT016 SCT064 04/01 Q1009 NOSIG

EXPIRED METARs :
  • 121250Z 26013KT 9999 SCT018 SCT050 05/01 Q1009 NOSIG
  • 121220Z 26018KT 9999 -SHRASN FEW010 FEW018CB BKN030 04/01 Q1008 NOSIG
  • 121150Z 26014KT 9999 -SHRASN FEW010 FEW018CB BKN030 04/01 Q1008 NOSIG
  • 121120Z 24017KT 9999 FEW015 BKN018 04/01 Q1007 NOSIG
  • 121050Z 25013KT 9999 BKN018 BKN045 04/01 Q1007 NOSIG

TAF TAF EDDK
Valid from the 12 at 12:00 until the 13 at 18:00 UTC


121100Z 1212/1318 25014KT 9999 BKN020
BECMG 1213/1216 25008KT
BECMG 1219/1222 16006KT
BECMG 1306/1309 17012KT
TEMPO 1309/1312 RA
No reported NOTAMs for that airfield.



MET'MAP, your aeronautical weather chart ! - Copyright ORBIFLY December 2007 - Disclaimer

ORBIFLY MET'MAP TEAM :

Programming & Development : Alexandra Zaïnal
Concept & Development : Baudouin d'Aumeries
Co-Development & Prog : Marc-Olivier Méhu
Technical & hardware support : Manuel Goepfert

Contact : metmap@orbifly.com




SOURCES & CREDITS :

   NOAA